createdAt,value
2023-03-26T00:01:26.064Z,67.80
2023-03-26T00:03:58.067Z,68.14
2023-03-26T00:06:29.399Z,68.46
2023-03-26T00:08:59.307Z,68.42
2023-03-26T00:11:29.616Z,68.47
2023-03-26T00:13:58.889Z,68.03
2023-03-26T00:16:31.322Z,68.75
2023-03-26T00:19:01.517Z,68.44
2023-03-26T00:21:31.648Z,68.33
2023-03-26T00:24:04.593Z,68.10
2023-03-26T00:26:33.841Z,67.96
2023-03-26T00:29:04.194Z,67.95
2023-03-26T00:31:34.888Z,68.28
2023-03-26T00:34:05.775Z,68.22
2023-03-26T00:36:36.373Z,68.27
2023-03-26T00:39:06.385Z,68.85
2023-03-26T00:41:37.336Z,68.65
2023-03-26T00:44:06.288Z,68.97
2023-03-26T00:46:36.467Z,69.12
2023-03-26T00:49:05.147Z,68.79
2023-03-26T00:51:35.176Z,69.01
2023-03-26T00:54:03.642Z,69.15
2023-03-26T00:56:33.054Z,68.63
2023-03-26T00:59:01.506Z,69.06
2023-03-26T01:01:31.689Z,68.77
2023-03-26T01:04:28.532Z,68.68
2023-03-26T01:07:00.137Z,68.77
2023-03-26T01:09:34.896Z,68.86
2023-03-26T01:12:06.783Z,69.03
2023-03-26T01:14:35.404Z,68.92
2023-03-26T01:17:07.066Z,68.92
2023-03-26T01:19:46.960Z,68.87
2023-03-26T01:22:17.825Z,69.01
2023-03-26T01:24:53.407Z,69.42
2023-03-26T01:27:29.804Z,69.40
2023-03-26T01:30:06.001Z,69.48
2023-03-26T01:32:46.390Z,69.60
2023-03-26T01:35:26.147Z,70.35
2023-03-26T01:38:10.697Z,70.65
2023-03-26T01:40:47.255Z,70.37
2023-03-26T01:43:26.062Z,70.44
2023-03-26T01:45:56.501Z,70.44
2023-03-26T01:48:31.979Z,70.28
2023-03-26T01:51:00.571Z,70.82
2023-03-26T01:53:29.153Z,70.34
2023-03-26T01:56:07.370Z,70.41
2023-03-26T01:58:42.761Z,70.80
2023-03-26T02:01:24.731Z,70.47
2023-03-26T02:04:00.580Z,70.35
2023-03-26T02:06:37.757Z,70.56
2023-03-26T02:09:09.333Z,70.74
2023-03-26T02:11:41.934Z,70.52
2023-03-26T02:14:11.616Z,70.61
2023-03-26T02:16:40.070Z,70.88
2023-03-26T02:19:15.618Z,70.85
2023-03-26T02:21:46.042Z,70.75
2023-03-26T02:24:14.689Z,70.73
2023-03-26T02:26:44.641Z,70.72
2023-03-26T02:29:14.120Z,70.49
2023-03-26T02:31:45.035Z,70.51
2023-03-26T02:34:13.922Z,70.97
2023-03-26T02:36:48.597Z,71.53
2023-03-26T02:39:17.113Z,71.16
2023-03-26T02:41:54.672Z,71.38
2023-03-26T02:44:23.459Z,71.39
2023-03-26T02:47:14.830Z,71.21
2023-03-26T02:49:55.348Z,71.38
2023-03-26T02:52:50.328Z,71.17
2023-03-26T02:55:19.644Z,71.51
2023-03-26T02:57:50.867Z,71.93
2023-03-26T03:00:22.941Z,71.87
2023-03-26T03:02:53.009Z,71.86
2023-03-26T03:05:34.586Z,71.57
2023-03-26T03:08:31.416Z,72.42
2023-03-26T03:11:12.543Z,72.29
2023-03-26T03:13:52.087Z,72.71
2023-03-26T03:16:24.277Z,72.39
2023-03-26T03:18:57.875Z,72.60
2023-03-26T03:21:47.024Z,72.04
2023-03-26T03:24:18.561Z,72.10
2023-03-26T03:26:50.422Z,71.57
2023-03-26T03:29:37.887Z,71.75
2023-03-26T03:32:27.904Z,71.42
2023-03-26T03:35:01.097Z,71.52
2023-03-26T03:37:29.932Z,71.71
2023-03-26T03:39:59.985Z,71.93
2023-03-26T03:42:31.614Z,71.97
2023-03-26T03:45:04.866Z,71.74
2023-03-26T03:47:54.275Z,72.59
2023-03-26T03:50:29.716Z,72.19
2023-03-26T03:53:18.738Z,72.07
2023-03-26T03:55:54.260Z,72.52
2023-03-26T03:58:28.459Z,72.39
2023-03-26T04:01:04.768Z,71.79
2023-03-26T04:03:59.531Z,72.25
2023-03-26T04:06:40.623Z,72.23
2023-03-26T04:09:10.975Z,72.18
2023-03-26T04:11:40.234Z,71.85
2023-03-26T04:14:20.929Z,72.27
2023-03-26T04:17:13.575Z,72.41
2023-03-26T04:19:44.303Z,72.65
2023-03-26T04:22:14.927Z,72.47
2023-03-26T04:24:55.661Z,72.87
2023-03-26T04:27:35.571Z,73.02
2023-03-26T04:30:24.583Z,73.03
2023-03-26T04:33:04.129Z,72.78
2023-03-26T04:35:35.873Z,72.79
2023-03-26T04:38:07.083Z,73.53
2023-03-26T04:40:42.498Z,73.29
2023-03-26T04:43:25.352Z,73.37
2023-03-26T04:46:14.412Z,73.46
2023-03-26T04:48:53.620Z,73.42
2023-03-26T04:51:35.204Z,73.69
2023-03-26T04:54:04.350Z,73.79
2023-03-26T04:56:46.078Z,73.31
2023-03-26T04:59:26.161Z,73.14
2023-03-26T05:01:57.977Z,73.42
2023-03-26T05:04:30.566Z,73.60
2023-03-26T05:07:00.226Z,73.60
2023-03-26T05:09:41.227Z,73.62
2023-03-26T05:12:16.606Z,73.26
2023-03-26T05:15:20.502Z,73.76
2023-03-26T05:17:51.942Z,73.63
2023-03-26T05:20:31.310Z,73.22
2023-03-26T05:23:00.005Z,73.22
2023-03-26T05:25:31.635Z,73.13
2023-03-26T05:28:02.041Z,72.92
2023-03-26T05:30:40.655Z,72.95
2023-03-26T05:33:09.265Z,73.21
2023-03-26T05:35:46.824Z,73.18
2023-03-26T05:38:15.593Z,72.91
2023-03-26T05:40:44.045Z,73.03
2023-03-26T05:43:17.400Z,73.08
2023-03-26T05:45:56.354Z,73.13
2023-03-26T05:48:31.507Z,73.29
2023-03-26T05:51:01.702Z,72.69
2023-03-26T05:53:32.813Z,73.16
2023-03-26T05:56:19.774Z,73.53
2023-03-26T05:59:07.114Z,73.54
2023-03-26T06:01:54.661Z,73.55
2023-03-26T06:05:01.387Z,73.15
2023-03-26T06:07:39.550Z,73.36
2023-03-26T06:10:18.470Z,73.46
2023-03-26T06:12:47.879Z,73.23
2023-03-26T06:15:16.803Z,73.17
2023-03-26T06:17:49.270Z,73.02
2023-03-26T06:20:42.862Z,73.02
2023-03-26T06:23:23.651Z,72.79
2023-03-26T06:26:18.380Z,73.25
2023-03-26T06:28:57.996Z,73.36
2023-03-26T06:31:44.701Z,73.65
2023-03-26T06:34:39.211Z,73.71
2023-03-26T06:37:07.676Z,73.59
2023-03-26T06:39:38.391Z,73.64
2023-03-26T06:42:22.157Z,73.87
2023-03-26T06:45:28.863Z,73.96
2023-03-26T06:48:16.096Z,74.07
2023-03-26T06:50:58.290Z,74.38
2023-03-26T06:53:52.368Z,74.32
2023-03-26T06:56:45.314Z,74.67
2023-03-26T06:59:37.492Z,74.72
2023-03-26T07:02:34.781Z,74.40
2023-03-26T07:05:26.471Z,74.57
2023-03-26T07:08:22.220Z,74.81
2023-03-26T07:11:11.552Z,74.76
2023-03-26T07:14:13.721Z,74.95
2023-03-26T07:16:49.092Z,75.15
2023-03-26T07:19:31.342Z,75.16
2023-03-26T07:22:00.526Z,75.39
2023-03-26T07:24:50.771Z,76.00
2023-03-26T07:27:45.534Z,75.24
2023-03-26T07:30:26.036Z,74.96
2023-03-26T07:33:22.945Z,74.42
2023-03-26T07:36:22.050Z,74.11
2023-03-26T07:39:28.213Z,73.25
2023-03-26T07:42:25.617Z,72.79
2023-03-26T07:45:24.905Z,72.65
2023-03-26T07:48:17.142Z,71.97
2023-03-26T07:51:04.513Z,72.14
2023-03-26T07:54:04.334Z,72.01
2023-03-26T07:56:54.948Z,71.76
2023-03-26T07:59:41.464Z,71.46
2023-03-26T08:03:11.562Z,71.29
2023-03-26T08:06:27.167Z,70.11
2023-03-26T08:09:31.061Z,69.77
2023-03-26T08:12:30.159Z,69.50
2023-03-26T08:15:05.815Z,67.61
2023-03-26T08:17:40.761Z,67.47
2023-03-26T08:20:26.290Z,68.34
2023-03-26T08:23:03.734Z,66.25
2023-03-26T08:25:38.046Z,65.44
2023-03-26T08:28:29.670Z,65.12
2023-03-26T08:30:58.762Z,63.88
2023-03-26T08:33:28.822Z,61.99
2023-03-26T08:35:59.335Z,57.61
2023-03-26T08:38:27.829Z,55.37
2023-03-26T08:41:43.226Z,53.60
2023-03-26T08:45:02.547Z,50.31
2023-03-26T08:48:09.501Z,49.37
2023-03-26T08:51:28.351Z,48.24
2023-03-26T08:54:29.001Z,47.90
2023-03-26T08:57:17.734Z,45.66
2023-03-26T09:00:13.593Z,45.67
2023-03-26T09:03:35.783Z,44.05
2023-03-26T09:06:41.862Z,43.73
2023-03-26T09:09:39.855Z,42.05
2023-03-26T09:12:42.098Z,40.94
2023-03-26T09:15:51.920Z,41.50
2023-03-26T09:18:53.793Z,40.92
2023-03-26T09:21:46.624Z,39.05
2023-03-26T09:25:05.175Z,38.62
2023-03-26T09:27:54.635Z,37.88
2023-03-26T09:30:45.794Z,36.80
2023-03-26T09:33:52.369Z,37.45
2023-03-26T09:36:37.357Z,37.03
2023-03-26T09:39:15.445Z,36.99
2023-03-26T09:41:53.401Z,37.60
2023-03-26T09:45:00.444Z,38.03
2023-03-26T09:47:48.918Z,37.22
2023-03-26T09:50:35.131Z,37.55
2023-03-26T09:53:31.758Z,37.27
2023-03-26T09:56:12.768Z,38.65
2023-03-26T09:59:04.902Z,38.29
2023-03-26T10:01:44.121Z,37.34
2023-03-26T10:04:42.450Z,36.59
2023-03-26T10:07:30.345Z,36.74
2023-03-26T10:10:05.873Z,36.25
2023-03-26T10:12:38.958Z,36.48
2023-03-26T10:15:31.484Z,35.80
2023-03-26T10:18:27.036Z,35.87
2023-03-26T10:21:07.177Z,36.75
2023-03-26T10:24:08.780Z,35.97
2023-03-26T10:27:09.253Z,35.45
2023-03-26T10:29:59.398Z,36.29
2023-03-26T10:32:34.962Z,36.55
2023-03-26T10:35:24.734Z,36.43
2023-03-26T10:38:07.437Z,36.65
2023-03-26T10:40:43.835Z,36.97
2023-03-26T10:43:36.284Z,37.30
2023-03-26T10:46:26.328Z,37.72
2023-03-26T10:49:10.019Z,37.29
2023-03-26T10:51:51.486Z,37.46
2023-03-26T10:54:33.500Z,37.70
2023-03-26T10:57:05.078Z,38.77
2023-03-26T10:59:33.487Z,39.10
2023-03-26T11:02:29.461Z,39.76
2023-03-26T11:05:19.063Z,39.52
2023-03-26T11:07:54.084Z,39.79
2023-03-26T11:10:42.420Z,39.76
2023-03-26T11:13:22.967Z,40.08
2023-03-26T11:15:58.072Z,40.85
2023-03-26T11:18:35.822Z,40.66
2023-03-26T11:21:19.794Z,41.43
2023-03-26T11:24:06.342Z,41.61
2023-03-26T11:26:43.804Z,42.05
2023-03-26T11:29:31.378Z,42.15
2023-03-26T11:32:06.773Z,41.73
2023-03-26T11:34:39.988Z,41.80
2023-03-26T11:37:16.594Z,42.30
2023-03-26T11:39:52.787Z,42.31
2023-03-26T11:42:25.058Z,42.89
2023-03-26T11:44:57.463Z,43.24
2023-03-26T11:47:32.383Z,43.65
2023-03-26T11:50:04.950Z,44.16
2023-03-26T11:52:33.446Z,43.12
2023-03-26T11:55:03.499Z,43.12
2023-03-26T11:57:35.872Z,43.03
2023-03-26T12:00:16.794Z,42.43
2023-03-26T12:02:46.807Z,42.13
2023-03-26T12:05:21.205Z,41.95
2023-03-26T12:07:56.113Z,41.86
2023-03-26T12:10:32.260Z,41.54
2023-03-26T12:13:03.081Z,41.77
2023-03-26T12:15:32.554Z,41.79
2023-03-26T12:18:24.895Z,42.46
2023-03-26T12:21:05.512Z,42.76
2023-03-26T12:23:44.350Z,41.81
2023-03-26T12:26:17.667Z,41.96
2023-03-26T12:28:50.106Z,41.83
2023-03-26T12:31:20.541Z,41.96
2023-03-26T12:34:07.809Z,42.72
2023-03-26T12:36:39.278Z,42.75
2023-03-26T12:40:07.551Z,42.23
2023-03-26T12:44:51.502Z,42.90
2023-03-26T12:45:23.949Z,42.42
2023-03-26T12:48:00.766Z,41.87
2023-03-26T12:50:45.892Z,42.08
2023-03-26T12:53:32.351Z,41.13
2023-03-26T12:56:07.662Z,40.13
2023-03-26T12:58:56.863Z,39.83
2023-03-26T13:01:33.398Z,39.90
2023-03-26T13:04:51.929Z,40.31
2023-03-26T13:07:41.749Z,39.37
2023-03-26T13:10:30.590Z,39.93
2023-03-26T13:13:17.148Z,39.81
2023-03-26T13:15:52.694Z,39.00
2023-03-26T13:18:35.894Z,39.41
2023-03-26T13:21:12.285Z,39.21
2023-03-26T13:23:51.836Z,38.77
2023-03-26T13:26:33.653Z,38.43
2023-03-26T13:29:09.834Z,38.47
2023-03-26T13:31:50.952Z,38.31
2023-03-26T13:34:31.416Z,37.94
2023-03-26T13:37:12.902Z,37.55
2023-03-26T13:39:54.932Z,38.06
2023-03-26T13:42:40.631Z,37.00
2023-03-26T13:45:24.063Z,36.48
2023-03-26T13:47:58.507Z,36.65
2023-03-26T13:50:29.747Z,36.08
2023-03-26T13:53:03.778Z,34.78
2023-03-26T13:55:36.289Z,35.17
2023-03-26T13:58:12.669Z,35.46
2023-03-26T14:00:54.859Z,35.92
2023-03-26T14:03:35.761Z,35.74
2023-03-26T14:06:09.767Z,36.01
2023-03-26T14:08:43.952Z,35.52
2023-03-26T14:11:17.771Z,35.07
2023-03-26T14:13:54.109Z,34.59
2023-03-26T14:16:27.769Z,34.89
2023-03-26T14:19:07.715Z,34.89
2023-03-26T14:22:00.131Z,35.60
2023-03-26T14:25:08.545Z,35.20
2023-03-26T14:27:52.113Z,35.49
2023-03-26T14:30:57.356Z,35.44
2023-03-26T14:33:48.024Z,35.63
2023-03-26T14:36:30.696Z,35.66
2023-03-26T14:39:15.498Z,35.83
2023-03-26T14:41:50.091Z,35.92
2023-03-26T14:44:52.312Z,35.96
2023-03-26T14:47:22.467Z,35.71
2023-03-26T14:50:27.207Z,35.62
2023-03-26T14:53:01.235Z,35.80
2023-03-26T14:56:05.370Z,36.03
2023-03-26T14:59:09.884Z,36.55
2023-03-26T15:02:18.928Z,36.58
2023-03-26T15:05:23.827Z,36.81
2023-03-26T15:08:34.072Z,36.77
2023-03-26T15:11:22.653Z,36.77
2023-03-26T15:14:31.711Z,36.40
2023-03-26T15:17:34.726Z,35.71
2023-03-26T15:20:38.764Z,35.67
2023-03-26T15:23:38.876Z,35.46
2023-03-26T15:26:54.122Z,34.81
2023-03-26T15:29:43.688Z,34.91
2023-03-26T15:32:52.835Z,34.81
2023-03-26T15:35:44.672Z,36.40
2023-03-26T15:38:47.148Z,37.66
2023-03-26T15:41:18.744Z,38.48
2023-03-26T15:44:23.438Z,38.75
2023-03-26T15:47:18.775Z,38.93
2023-03-26T15:49:56.167Z,39.12
2023-03-26T15:52:30.621Z,39.23
2023-03-26T15:55:07.091Z,38.70
2023-03-26T15:57:44.148Z,38.82
2023-03-26T16:00:23.784Z,38.61
2023-03-26T16:03:09.161Z,38.50
2023-03-26T16:06:00.103Z,37.51
2023-03-26T16:08:38.672Z,37.58
2023-03-26T16:11:12.852Z,37.94
2023-03-26T16:13:43.741Z,37.44
2023-03-26T16:16:21.053Z,37.88
2023-03-26T16:18:55.352Z,38.27
2023-03-26T16:21:56.226Z,38.20
2023-03-26T16:24:32.069Z,38.50
2023-03-26T16:27:30.447Z,38.52
2023-03-26T16:30:20.206Z,39.01
2023-03-26T16:32:55.448Z,39.08
2023-03-26T16:35:47.895Z,39.45
2023-03-26T16:38:18.613Z,39.64
2023-03-26T16:41:00.483Z,40.21
2023-03-26T16:43:46.884Z,40.30
2023-03-26T16:46:29.832Z,40.18
2023-03-26T16:49:04.504Z,40.70
2023-03-26T16:51:54.845Z,41.06
2023-03-26T16:54:29.411Z,41.20
2023-03-26T16:57:02.587Z,41.29
2023-03-26T17:00:05.495Z,42.05
2023-03-26T17:02:53.516Z,42.71
2023-03-26T17:05:35.178Z,43.22
2023-03-26T17:08:13.407Z,43.32
2023-03-26T17:10:48.520Z,43.93
2023-03-26T17:13:24.412Z,44.22
2023-03-26T17:16:02.781Z,44.39
2023-03-26T17:18:46.287Z,44.68
2023-03-26T17:21:18.408Z,45.01
2023-03-26T17:24:05.065Z,45.17
2023-03-26T17:26:45.560Z,45.54
2023-03-26T17:29:27.472Z,45.73
2023-03-26T17:32:03.546Z,45.60
2023-03-26T17:35:02.362Z,45.70
2023-03-26T17:37:41.111Z,45.85
2023-03-26T17:40:45.662Z,45.85
2023-03-26T17:43:33.963Z,45.97
2023-03-26T17:46:04.166Z,45.72
2023-03-26T17:48:37.858Z,46.14
2023-03-26T17:51:28.313Z,46.05
2023-03-26T17:53:57.656Z,46.67
2023-03-26T17:56:32.357Z,46.21
2023-03-26T17:59:12.158Z,46.87
2023-03-26T18:01:44.351Z,47.00
2023-03-26T18:04:19.884Z,46.92
2023-03-26T18:07:15.517Z,46.23
2023-03-26T18:10:00.458Z,46.45
2023-03-26T18:12:45.693Z,46.83
2023-03-26T18:15:42.718Z,47.01
2023-03-26T18:18:18.474Z,47.45
2023-03-26T18:20:49.269Z,47.46
2023-03-26T18:23:26.771Z,47.12
2023-03-26T18:25:58.804Z,47.55
2023-03-26T18:28:32.939Z,47.20
2023-03-26T18:31:10.605Z,47.80
2023-03-26T18:33:47.420Z,47.63
2023-03-26T18:36:18.702Z,48.22
2023-03-26T18:38:49.064Z,48.05
2023-03-26T18:41:25.316Z,48.62
2023-03-26T18:43:53.816Z,48.60
2023-03-26T18:46:24.930Z,48.44
2023-03-26T18:48:55.311Z,49.15
2023-03-26T18:51:23.922Z,48.92
2023-03-26T18:53:57.083Z,49.20
2023-03-26T18:56:31.794Z,49.08
2023-03-26T18:59:02.558Z,49.61
2023-03-26T19:01:33.404Z,49.83
2023-03-26T19:04:05.434Z,49.86
2023-03-26T19:06:38.486Z,49.84
2023-03-26T19:09:27.959Z,49.52
2023-03-26T19:12:06.090Z,50.13
2023-03-26T19:14:37.160Z,50.44
2023-03-26T19:17:08.299Z,50.18
2023-03-26T19:19:39.019Z,50.52
2023-03-26T19:22:08.724Z,50.60
2023-03-26T19:24:38.905Z,51.21
2023-03-26T19:27:07.523Z,52.03
2023-03-26T19:29:36.793Z,52.34
2023-03-26T19:32:06.880Z,52.65
2023-03-26T19:34:39.458Z,54.15
2023-03-26T19:37:19.278Z,56.17
2023-03-26T19:39:51.300Z,57.34
2023-03-26T19:42:23.406Z,58.44
2023-03-26T19:44:53.814Z,59.50
2023-03-26T19:47:35.408Z,61.76
2023-03-26T19:50:25.570Z,62.67
2023-03-26T19:53:16.801Z,63.80
2023-03-26T19:55:57.422Z,65.04
2023-03-26T19:58:27.495Z,65.62
2023-03-26T20:00:57.184Z,65.99
2023-03-26T20:03:31.801Z,65.42
2023-03-26T20:06:00.344Z,65.14
2023-03-26T20:08:31.000Z,64.82
2023-03-26T20:11:00.830Z,64.56
2023-03-26T20:13:31.523Z,64.66
2023-03-26T20:16:06.555Z,64.18
2023-03-26T20:18:35.585Z,64.32
2023-03-26T20:21:10.200Z,63.96
2023-03-26T20:23:39.212Z,63.75
2023-03-26T20:26:12.974Z,63.89
2023-03-26T20:28:47.856Z,63.47
2023-03-26T20:31:19.376Z,63.49
2023-03-26T20:33:50.930Z,63.43
2023-03-26T20:36:33.819Z,62.31
2023-03-26T20:39:05.824Z,62.35
2023-03-26T20:41:38.229Z,61.83
2023-03-26T20:44:13.881Z,61.89
2023-03-26T20:46:43.851Z,61.83
2023-03-26T20:49:13.051Z,61.71
2023-03-26T20:51:42.274Z,61.54
2023-03-26T20:54:16.147Z,61.48
2023-03-26T20:56:47.957Z,61.34
2023-03-26T20:59:22.277Z,61.88
2023-03-26T21:01:51.988Z,62.22
2023-03-26T21:04:21.560Z,61.91
2023-03-26T21:06:50.137Z,61.70
2023-03-26T21:09:23.957Z,62.11
2023-03-26T21:12:01.929Z,62.28
2023-03-26T21:14:34.578Z,62.55
2023-03-26T21:17:04.792Z,62.51
2023-03-26T21:19:34.043Z,62.49
2023-03-26T21:22:13.804Z,62.19
2023-03-26T21:25:00.235Z,62.11
2023-03-26T21:27:36.462Z,62.19
2023-03-26T21:30:13.934Z,62.29
2023-03-26T21:32:44.209Z,62.43
2023-03-26T21:35:15.167Z,62.92
2023-03-26T21:37:45.735Z,63.02
2023-03-26T21:40:17.142Z,63.65
2023-03-26T21:42:49.679Z,63.45
2023-03-26T21:45:19.837Z,63.27
2023-03-26T21:47:49.456Z,63.38
2023-03-26T21:50:20.763Z,63.42
2023-03-26T21:52:50.491Z,63.36
2023-03-26T21:55:20.550Z,63.63
2023-03-26T21:58:14.648Z,63.76
2023-03-26T22:00:51.864Z,64.26
2023-03-26T22:03:26.608Z,64.51
2023-03-26T22:06:01.307Z,64.62
2023-03-26T22:08:32.878Z,64.90
2023-03-26T22:11:01.607Z,65.16
2023-03-26T22:13:31.992Z,64.85
2023-03-26T22:16:01.015Z,64.93
2023-03-26T22:18:30.783Z,65.00
2023-03-26T22:21:00.099Z,65.06
2023-03-26T22:23:36.454Z,64.98
2023-03-26T22:26:05.364Z,64.79
2023-03-26T22:28:35.644Z,64.67
2023-03-26T22:31:08.689Z,64.33
2023-03-26T22:33:37.409Z,64.33
2023-03-26T22:36:06.477Z,63.55
2023-03-26T22:38:53.912Z,62.52
2023-03-26T22:41:22.665Z,61.35
2023-03-26T22:43:54.869Z,60.48
2023-03-26T22:46:24.385Z,58.84
2023-03-26T22:48:52.852Z,57.59
2023-03-26T22:51:21.441Z,57.18
2023-03-26T22:53:49.832Z,56.10
2023-03-26T22:56:18.920Z,56.00
2023-03-26T22:58:48.195Z,55.18
2023-03-26T23:01:20.455Z,54.45
2023-03-26T23:03:48.906Z,54.46
2023-03-26T23:06:17.988Z,54.06
2023-03-26T23:08:46.454Z,53.89
2023-03-26T23:11:17.684Z,53.78
2023-03-26T23:13:47.971Z,53.32
2023-03-26T23:16:19.300Z,53.39
2023-03-26T23:18:47.890Z,53.02
2023-03-26T23:21:18.571Z,53.19
2023-03-26T23:23:47.751Z,52.85
2023-03-26T23:26:16.808Z,52.81
2023-03-26T23:28:45.281Z,52.71
2023-03-26T23:31:14.245Z,52.74
2023-03-26T23:33:46.686Z,52.46
2023-03-26T23:36:18.353Z,52.05
2023-03-26T23:38:49.402Z,51.72
2023-03-26T23:41:19.775Z,51.83
2023-03-26T23:43:53.737Z,51.48
2023-03-26T23:46:25.253Z,51.67
2023-03-26T23:48:55.204Z,51.47
2023-03-26T23:51:24.199Z,51.73
2023-03-26T23:53:53.905Z,51.33
2023-03-26T23:56:22.374Z,52.03
2023-03-26T23:58:50.962Z,53.22
